sensor_id;sensor_type;location;lat;lon;timestamp;temperature;humidity
31207;DHT22;17834;52.992;8.856;2023-05-07T00:00:21;10.30;99.90
31207;DHT22;17834;52.992;8.856;2023-05-07T00:02:47;10.30;99.90
31207;DHT22;17834;52.992;8.856;2023-05-07T00:05:13;10.30;99.90
31207;DHT22;17834;52.992;8.856;2023-05-07T00:07:38;10.30;99.90
31207;DHT22;17834;52.992;8.856;2023-05-07T00:10:05;10.30;99.90
31207;DHT22;17834;52.992;8.856;2023-05-07T00:12:32;10.30;99.90
31207;DHT22;17834;52.992;8.856;2023-05-07T00:15:00;10.20;99.90
31207;DHT22;17834;52.992;8.856;2023-05-07T00:17:25;10.20;99.90
31207;DHT22;17834;52.992;8.856;2023-05-07T00:19:51;10.20;99.90
31207;DHT22;17834;52.992;8.856;2023-05-07T00:22:16;10.20;99.90
31207;DHT22;17834;52.992;8.856;2023-05-07T00:24:42;10.20;99.90
31207;DHT22;17834;52.992;8.856;2023-05-07T00:27:08;10.20;99.90
31207;DHT22;17834;52.992;8.856;2023-05-07T00:29:34;10.20;99.90
31207;DHT22;17834;52.992;8.856;2023-05-07T00:31:59;10.20;99.90
31207;DHT22;17834;52.992;8.856;2023-05-07T00:34:25;10.20;99.90
31207;DHT22;17834;52.992;8.856;2023-05-07T00:36:50;10.20;99.90
31207;DHT22;17834;52.992;8.856;2023-05-07T00:39:16;10.10;99.90
31207;DHT22;17834;52.992;8.856;2023-05-07T00:41:41;10.10;99.90
31207;DHT22;17834;52.992;8.856;2023-05-07T00:44:07;10.10;99.90
31207;DHT22;17834;52.992;8.856;2023-05-07T00:46:33;10.10;99.90
31207;DHT22;17834;52.992;8.856;2023-05-07T00:48:59;10.10;99.90
31207;DHT22;17834;52.992;8.856;2023-05-07T00:51:25;10.10;99.90
31207;DHT22;17834;52.992;8.856;2023-05-07T00:53:53;10.10;99.90
31207;DHT22;17834;52.992;8.856;2023-05-07T00:56:21;10.10;99.90
31207;DHT22;17834;52.992;8.856;2023-05-07T00:58:47;10.10;99.90
31207;DHT22;17834;52.992;8.856;2023-05-07T01:01:12;10.00;99.90
31207;DHT22;17834;52.992;8.856;2023-05-07T01:03:38;10.00;99.90
31207;DHT22;17834;52.992;8.856;2023-05-07T01:06:04;10.00;99.90
31207;DHT22;17834;52.992;8.856;2023-05-07T01:08:31;9.90;99.90
31207;DHT22;17834;52.992;8.856;2023-05-07T01:10:57;9.90;99.90
31207;DHT22;17834;52.992;8.856;2023-05-07T01:13:24;9.80;99.90
31207;DHT22;17834;52.992;8.856;2023-05-07T01:15:50;9.90;99.90
31207;DHT22;17834;52.992;8.856;2023-05-07T01:18:15;9.80;99.90
31207;DHT22;17834;52.992;8.856;2023-05-07T01:20:42;9.90;99.90
31207;DHT22;17834;52.992;8.856;2023-05-07T01:23:07;9.90;99.90
31207;DHT22;17834;52.992;8.856;2023-05-07T01:25:34;9.90;99.90
31207;DHT22;17834;52.992;8.856;2023-05-07T01:28:00;9.80;99.90
31207;DHT22;17834;52.992;8.856;2023-05-07T01:30:27;9.80;99.90
31207;DHT22;17834;52.992;8.856;2023-05-07T01:33:03;9.80;99.90
31207;DHT22;17834;52.992;8.856;2023-05-07T01:35:34;9.80;99.90
31207;DHT22;17834;52.992;8.856;2023-05-07T01:38:02;9.80;99.90
31207;DHT22;17834;52.992;8.856;2023-05-07T01:40:29;9.80;99.90
31207;DHT22;17834;52.992;8.856;2023-05-07T01:42:55;9.80;99.90
31207;DHT22;17834;52.992;8.856;2023-05-07T01:45:21;9.80;99.90
31207;DHT22;17834;52.992;8.856;2023-05-07T01:47:47;9.70;99.90
31207;DHT22;17834;52.992;8.856;2023-05-07T01:50:16;9.70;99.90
31207;DHT22;17834;52.992;8.856;2023-05-07T01:52:42;9.70;99.90
31207;DHT22;17834;52.992;8.856;2023-05-07T01:55:08;9.80;99.90
31207;DHT22;17834;52.992;8.856;2023-05-07T01:57:34;9.70;99.90
31207;DHT22;17834;52.992;8.856;2023-05-07T01:59:59;9.70;99.90
31207;DHT22;17834;52.992;8.856;2023-05-07T02:02:25;9.80;99.90
31207;DHT22;17834;52.992;8.856;2023-05-07T02:04:50;9.80;99.90
31207;DHT22;17834;52.992;8.856;2023-05-07T02:07:16;9.70;99.90
31207;DHT22;17834;52.992;8.856;2023-05-07T02:09:41;9.80;99.90
31207;DHT22;17834;52.992;8.856;2023-05-07T02:12:07;9.80;99.90
31207;DHT22;17834;52.992;8.856;2023-05-07T02:14:32;9.70;99.90
31207;DHT22;17834;52.992;8.856;2023-05-07T02:16:58;9.80;99.90
31207;DHT22;17834;52.992;8.856;2023-05-07T02:19:23;9.70;99.90
31207;DHT22;17834;52.992;8.856;2023-05-07T02:21:49;9.70;99.90
31207;DHT22;17834;52.992;8.856;2023-05-07T02:24:16;9.70;99.90
31207;DHT22;17834;52.992;8.856;2023-05-07T02:26:41;9.70;99.90
31207;DHT22;17834;52.992;8.856;2023-05-07T02:29:07;9.60;99.90
31207;DHT22;17834;52.992;8.856;2023-05-07T02:31:33;9.60;99.90
31207;DHT22;17834;52.992;8.856;2023-05-07T02:33:59;9.60;99.90
31207;DHT22;17834;52.992;8.856;2023-05-07T02:36:25;9.60;99.90
31207;DHT22;17834;52.992;8.856;2023-05-07T02:38:52;9.60;99.90
31207;DHT22;17834;52.992;8.856;2023-05-07T02:41:17;9.50;99.90
31207;DHT22;17834;52.992;8.856;2023-05-07T02:43:43;9.50;99.90
31207;DHT22;17834;52.992;8.856;2023-05-07T02:46:09;9.50;99.90
31207;DHT22;17834;52.992;8.856;2023-05-07T02:48:34;9.60;99.90
31207;DHT22;17834;52.992;8.856;2023-05-07T02:51:00;9.60;99.90
31207;DHT22;17834;52.992;8.856;2023-05-07T02:53:27;9.50;99.90
31207;DHT22;17834;52.992;8.856;2023-05-07T02:55:56;9.50;99.90
31207;DHT22;17834;52.992;8.856;2023-05-07T02:58:22;9.50;99.90
31207;DHT22;17834;52.992;8.856;2023-05-07T03:00:48;9.50;99.90
31207;DHT22;17834;52.992;8.856;2023-05-07T03:03:14;9.50;99.90
31207;DHT22;17834;52.992;8.856;2023-05-07T03:05:39;9.50;99.90
31207;DHT22;17834;52.992;8.856;2023-05-07T03:08:05;9.50;99.90
31207;DHT22;17834;52.992;8.856;2023-05-07T03:10:31;9.50;99.90
31207;DHT22;17834;52.992;8.856;2023-05-07T03:12:56;9.60;99.90
31207;DHT22;17834;52.992;8.856;2023-05-07T03:15:22;9.60;99.90
31207;DHT22;17834;52.992;8.856;2023-05-07T03:17:48;9.60;99.90
31207;DHT22;17834;52.992;8.856;2023-05-07T03:20:14;9.60;99.90
31207;DHT22;17834;52.992;8.856;2023-05-07T03:22:39;9.60;99.90
31207;DHT22;17834;52.992;8.856;2023-05-07T03:25:07;9.50;99.90
31207;DHT22;17834;52.992;8.856;2023-05-07T03:27:32;9.60;99.90
31207;DHT22;17834;52.992;8.856;2023-05-07T03:29:58;9.60;99.90
31207;DHT22;17834;52.992;8.856;2023-05-07T03:32:24;9.60;99.90
31207;DHT22;17834;52.992;8.856;2023-05-07T03:34:50;9.60;99.90
31207;DHT22;17834;52.992;8.856;2023-05-07T03:37:15;9.50;99.90
31207;DHT22;17834;52.992;8.856;2023-05-07T03:39:41;9.50;99.90
31207;DHT22;17834;52.992;8.856;2023-05-07T03:42:06;9.50;99.90
31207;DHT22;17834;52.992;8.856;2023-05-07T03:44:32;9.60;99.90
31207;DHT22;17834;52.992;8.856;2023-05-07T03:46:58;9.50;99.90
31207;DHT22;17834;52.992;8.856;2023-05-07T03:49:23;9.50;99.90
31207;DHT22;17834;52.992;8.856;2023-05-07T03:51:49;9.50;99.90
31207;DHT22;17834;52.992;8.856;2023-05-07T03:54:15;9.60;99.90
31207;DHT22;17834;52.992;8.856;2023-05-07T03:56:40;9.60;99.90
31207;DHT22;17834;52.992;8.856;2023-05-07T03:59:06;9.60;99.90
31207;DHT22;17834;52.992;8.856;2023-05-07T04:01:32;9.50;99.90
31207;DHT22;17834;52.992;8.856;2023-05-07T04:03:57;9.60;99.90
31207;DHT22;17834;52.992;8.856;2023-05-07T04:06:23;9.60;99.90
31207;DHT22;17834;52.992;8.856;2023-05-07T04:08:48;9.60;99.90
31207;DHT22;17834;52.992;8.856;2023-05-07T04:11:14;9.60;99.90
31207;DHT22;17834;52.992;8.856;2023-05-07T04:13:39;9.60;99.90
31207;DHT22;17834;52.992;8.856;2023-05-07T04:16:05;9.60;99.90
31207;DHT22;17834;52.992;8.856;2023-05-07T04:18:31;9.60;99.90
31207;DHT22;17834;52.992;8.856;2023-05-07T04:20:56;9.50;99.90
31207;DHT22;17834;52.992;8.856;2023-05-07T04:23:22;9.60;99.90
31207;DHT22;17834;52.992;8.856;2023-05-07T04:25:47;9.60;99.90
31207;DHT22;17834;52.992;8.856;2023-05-07T04:28:13;9.70;99.90
31207;DHT22;17834;52.992;8.856;2023-05-07T04:30:39;9.60;99.90
31207;DHT22;17834;52.992;8.856;2023-05-07T04:33:05;9.70;99.90
31207;DHT22;17834;52.992;8.856;2023-05-07T04:35:32;9.80;99.90
31207;DHT22;17834;52.992;8.856;2023-05-07T04:37:57;9.70;99.90
31207;DHT22;17834;52.992;8.856;2023-05-07T04:40:23;9.70;99.90
31207;DHT22;17834;52.992;8.856;2023-05-07T04:42:48;9.70;99.90
31207;DHT22;17834;52.992;8.856;2023-05-07T04:45:14;9.70;99.90
31207;DHT22;17834;52.992;8.856;2023-05-07T04:47:40;9.80;99.90
31207;DHT22;17834;52.992;8.856;2023-05-07T04:50:07;9.70;99.90
31207;DHT22;17834;52.992;8.856;2023-05-07T04:52:33;9.80;99.90
31207;DHT22;17834;52.992;8.856;2023-05-07T04:54:59;9.80;99.90
31207;DHT22;17834;52.992;8.856;2023-05-07T04:57:26;9.90;99.90
31207;DHT22;17834;52.992;8.856;2023-05-07T04:59:51;9.90;99.90
31207;DHT22;17834;52.992;8.856;2023-05-07T05:02:17;9.90;99.90
31207;DHT22;17834;52.992;8.856;2023-05-07T05:04:43;10.00;99.90
31207;DHT22;17834;52.992;8.856;2023-05-07T05:07:08;10.00;99.90
31207;DHT22;17834;52.992;8.856;2023-05-07T05:09:34;10.00;99.90
31207;DHT22;17834;52.992;8.856;2023-05-07T05:11:59;10.10;99.90
31207;DHT22;17834;52.992;8.856;2023-05-07T05:14:25;10.10;99.90
31207;DHT22;17834;52.992;8.856;2023-05-07T05:16:51;10.10;99.90
31207;DHT22;17834;52.992;8.856;2023-05-07T05:19:16;10.10;99.90
31207;DHT22;17834;52.992;8.856;2023-05-07T05:21:42;10.20;99.90
31207;DHT22;17834;52.992;8.856;2023-05-07T05:24:08;10.20;99.90
31207;DHT22;17834;52.992;8.856;2023-05-07T05:26:33;10.20;99.90
31207;DHT22;17834;52.992;8.856;2023-05-07T05:28:59;10.20;99.90
31207;DHT22;17834;52.992;8.856;2023-05-07T05:31:25;10.30;99.90
31207;DHT22;17834;52.992;8.856;2023-05-07T05:33:50;10.30;99.90
31207;DHT22;17834;52.992;8.856;2023-05-07T05:36:16;10.30;99.90
31207;DHT22;17834;52.992;8.856;2023-05-07T05:38:42;10.30;99.90
31207;DHT22;17834;52.992;8.856;2023-05-07T05:41:07;10.40;99.90
31207;DHT22;17834;52.992;8.856;2023-05-07T05:43:33;10.30;99.90
31207;DHT22;17834;52.992;8.856;2023-05-07T05:45:59;10.30;99.90
31207;DHT22;17834;52.992;8.856;2023-05-07T05:48:24;10.20;99.90
31207;DHT22;17834;52.992;8.856;2023-05-07T05:50:50;10.30;99.90
31207;DHT22;17834;52.992;8.856;2023-05-07T05:53:15;10.30;99.90
31207;DHT22;17834;52.992;8.856;2023-05-07T05:55:41;10.30;99.90
31207;DHT22;17834;52.992;8.856;2023-05-07T05:58:08;10.30;99.90
31207;DHT22;17834;52.992;8.856;2023-05-07T06:00:34;10.30;99.90
31207;DHT22;17834;52.992;8.856;2023-05-07T06:02:59;10.40;99.90
31207;DHT22;17834;52.992;8.856;2023-05-07T06:05:25;10.50;99.90
31207;DHT22;17834;52.992;8.856;2023-05-07T06:07:50;10.50;99.90
31207;DHT22;17834;52.992;8.856;2023-05-07T06:10:16;10.60;99.90
31207;DHT22;17834;52.992;8.856;2023-05-07T06:12:42;10.60;99.90
31207;DHT22;17834;52.992;8.856;2023-05-07T06:15:07;10.70;99.90
31207;DHT22;17834;52.992;8.856;2023-05-07T06:17:33;10.90;99.90
31207;DHT22;17834;52.992;8.856;2023-05-07T06:19:59;10.90;99.90
31207;DHT22;17834;52.992;8.856;2023-05-07T06:22:25;11.00;99.90
31207;DHT22;17834;52.992;8.856;2023-05-07T06:24:50;11.00;99.90
31207;DHT22;17834;52.992;8.856;2023-05-07T06:27:16;11.00;99.90
31207;DHT22;17834;52.992;8.856;2023-05-07T06:29:42;10.90;99.90
31207;DHT22;17834;52.992;8.856;2023-05-07T06:32:08;11.00;99.90
31207;DHT22;17834;52.992;8.856;2023-05-07T06:34:34;10.90;99.90
31207;DHT22;17834;52.992;8.856;2023-05-07T06:37:00;11.00;99.90
31207;DHT22;17834;52.992;8.856;2023-05-07T06:39:26;11.10;99.90
31207;DHT22;17834;52.992;8.856;2023-05-07T06:41:52;11.10;99.90
31207;DHT22;17834;52.992;8.856;2023-05-07T06:44:17;11.20;99.90
31207;DHT22;17834;52.992;8.856;2023-05-07T06:46:43;11.30;99.90
31207;DHT22;17834;52.992;8.856;2023-05-07T06:49:08;11.30;99.90
31207;DHT22;17834;52.992;8.856;2023-05-07T06:51:34;11.30;99.90
31207;DHT22;17834;52.992;8.856;2023-05-07T06:53:59;11.40;99.90
31207;DHT22;17834;52.992;8.856;2023-05-07T06:56:25;11.50;99.90
31207;DHT22;17834;52.992;8.856;2023-05-07T06:58:51;11.60;99.90
31207;DHT22;17834;52.992;8.856;2023-05-07T07:01:16;11.70;99.90
31207;DHT22;17834;52.992;8.856;2023-05-07T07:03:42;11.80;99.90
31207;DHT22;17834;52.992;8.856;2023-05-07T07:06:07;12.00;99.90
31207;DHT22;17834;52.992;8.856;2023-05-07T07:08:33;12.10;99.90
31207;DHT22;17834;52.992;8.856;2023-05-07T07:11:00;12.30;99.90
31207;DHT22;17834;52.992;8.856;2023-05-07T07:13:25;12.40;99.90
31207;DHT22;17834;52.992;8.856;2023-05-07T07:15:51;12.50;99.90
31207;DHT22;17834;52.992;8.856;2023-05-07T07:18:17;12.60;99.90
31207;DHT22;17834;52.992;8.856;2023-05-07T07:20:43;12.50;99.90
31207;DHT22;17834;52.992;8.856;2023-05-07T07:23:09;12.60;99.90
31207;DHT22;17834;52.992;8.856;2023-05-07T07:25:35;12.50;99.90
31207;DHT22;17834;52.992;8.856;2023-05-07T07:28:01;12.60;99.90
31207;DHT22;17834;52.992;8.856;2023-05-07T07:30:26;12.60;99.90
31207;DHT22;17834;52.992;8.856;2023-05-07T07:32:52;12.70;99.90
31207;DHT22;17834;52.992;8.856;2023-05-07T07:35:18;12.70;99.90
31207;DHT22;17834;52.992;8.856;2023-05-07T07:37:43;12.70;99.90
31207;DHT22;17834;52.992;8.856;2023-05-07T07:40:11;12.70;99.90
31207;DHT22;17834;52.992;8.856;2023-05-07T07:42:36;12.70;99.90
31207;DHT22;17834;52.992;8.856;2023-05-07T07:45:02;12.80;99.90
31207;DHT22;17834;52.992;8.856;2023-05-07T07:47:28;12.90;99.90
31207;DHT22;17834;52.992;8.856;2023-05-07T07:49:54;12.90;99.90
31207;DHT22;17834;52.992;8.856;2023-05-07T07:52:19;13.00;99.90
31207;DHT22;17834;52.992;8.856;2023-05-07T07:54:45;13.10;99.90
31207;DHT22;17834;52.992;8.856;2023-05-07T07:57:10;13.40;99.90
31207;DHT22;17834;52.992;8.856;2023-05-07T07:59:36;13.50;99.90
31207;DHT22;17834;52.992;8.856;2023-05-07T08:02:02;13.70;99.90
31207;DHT22;17834;52.992;8.856;2023-05-07T08:04:27;13.70;99.90
31207;DHT22;17834;52.992;8.856;2023-05-07T08:06:53;13.90;99.90
31207;DHT22;17834;52.992;8.856;2023-05-07T08:09:19;14.00;99.90
31207;DHT22;17834;52.992;8.856;2023-05-07T08:11:45;14.20;99.90
31207;DHT22;17834;52.992;8.856;2023-05-07T08:14:11;14.20;99.90
31207;DHT22;17834;52.992;8.856;2023-05-07T08:16:37;14.20;99.90
31207;DHT22;17834;52.992;8.856;2023-05-07T08:19:02;14.50;99.90
31207;DHT22;17834;52.992;8.856;2023-05-07T08:21:28;14.50;99.90
31207;DHT22;17834;52.992;8.856;2023-05-07T08:23:54;14.60;99.90
31207;DHT22;17834;52.992;8.856;2023-05-07T08:26:19;14.70;99.90
31207;DHT22;17834;52.992;8.856;2023-05-07T08:28:45;14.90;99.90
31207;DHT22;17834;52.992;8.856;2023-05-07T08:31:11;15.00;99.90
31207;DHT22;17834;52.992;8.856;2023-05-07T08:33:37;15.10;99.90
31207;DHT22;17834;52.992;8.856;2023-05-07T08:36:04;15.30;99.90
31207;DHT22;17834;52.992;8.856;2023-05-07T08:38:29;15.40;99.90
31207;DHT22;17834;52.992;8.856;2023-05-07T08:40:55;15.50;99.90
31207;DHT22;17834;52.992;8.856;2023-05-07T08:43:21;15.50;99.90
31207;DHT22;17834;52.992;8.856;2023-05-07T08:45:49;15.60;99.90
31207;DHT22;17834;52.992;8.856;2023-05-07T08:48:22;15.60;99.90
31207;DHT22;17834;52.992;8.856;2023-05-07T08:50:50;15.70;99.90
31207;DHT22;17834;52.992;8.856;2023-05-07T08:53:17;15.80;99.90
31207;DHT22;17834;52.992;8.856;2023-05-07T08:55:43;16.00;99.90
31207;DHT22;17834;52.992;8.856;2023-05-07T08:58:08;16.10;99.90
31207;DHT22;17834;52.992;8.856;2023-05-07T09:00:36;16.20;99.90
31207;DHT22;17834;52.992;8.856;2023-05-07T09:03:02;16.50;99.90
31207;DHT22;17834;52.992;8.856;2023-05-07T09:05:28;16.90;99.90
31207;DHT22;17834;52.992;8.856;2023-05-07T09:07:53;17.00;99.90
31207;DHT22;17834;52.992;8.856;2023-05-07T09:10:21;17.00;99.90
31207;DHT22;17834;52.992;8.856;2023-05-07T09:12:47;17.20;99.90
31207;DHT22;17834;52.992;8.856;2023-05-07T09:15:13;17.10;99.90
31207;DHT22;17834;52.992;8.856;2023-05-07T09:17:38;17.10;99.90
31207;DHT22;17834;52.992;8.856;2023-05-07T09:20:05;17.30;99.90
31207;DHT22;17834;52.992;8.856;2023-05-07T09:22:36;17.30;99.90
31207;DHT22;17834;52.992;8.856;2023-05-07T09:25:02;17.10;99.90
31207;DHT22;17834;52.992;8.856;2023-05-07T09:27:28;17.20;99.90
31207;DHT22;17834;52.992;8.856;2023-05-07T09:29:53;17.30;99.90
31207;DHT22;17834;52.992;8.856;2023-05-07T09:32:19;17.30;99.90
31207;DHT22;17834;52.992;8.856;2023-05-07T09:34:45;17.10;99.90
31207;DHT22;17834;52.992;8.856;2023-05-07T09:37:13;17.10;99.90
31207;DHT22;17834;52.992;8.856;2023-05-07T09:39:46;17.10;99.90
31207;DHT22;17834;52.992;8.856;2023-05-07T09:42:12;17.20;99.90
31207;DHT22;17834;52.992;8.856;2023-05-07T09:44:40;17.30;99.90
31207;DHT22;17834;52.992;8.856;2023-05-07T09:47:06;17.40;99.90
31207;DHT22;17834;52.992;8.856;2023-05-07T09:49:35;17.40;99.90
31207;DHT22;17834;52.992;8.856;2023-05-07T09:52:03;17.50;99.90
31207;DHT22;17834;52.992;8.856;2023-05-07T09:54:29;17.90;99.90
31207;DHT22;17834;52.992;8.856;2023-05-07T09:56:55;17.70;99.90
31207;DHT22;17834;52.992;8.856;2023-05-07T09:59:23;17.80;99.90
31207;DHT22;17834;52.992;8.856;2023-05-07T10:01:50;17.90;99.90
31207;DHT22;17834;52.992;8.856;2023-05-07T10:04:17;17.90;99.90
31207;DHT22;17834;52.992;8.856;2023-05-07T10:06:44;17.90;99.90
31207;DHT22;17834;52.992;8.856;2023-05-07T10:09:10;17.90;99.90
31207;DHT22;17834;52.992;8.856;2023-05-07T10:11:37;17.80;99.90
31207;DHT22;17834;52.992;8.856;2023-05-07T10:14:04;17.50;99.90
31207;DHT22;17834;52.992;8.856;2023-05-07T10:16:32;17.20;99.90
31207;DHT22;17834;52.992;8.856;2023-05-07T10:19:02;17.00;99.90
31207;DHT22;17834;52.992;8.856;2023-05-07T10:21:29;16.90;99.90
31207;DHT22;17834;52.992;8.856;2023-05-07T10:26:29;17.00;99.90
31207;DHT22;17834;52.992;8.856;2023-05-07T10:29:04;17.10;99.90
31207;DHT22;17834;52.992;8.856;2023-05-07T10:31:46;17.20;99.90
31207;DHT22;17834;52.992;8.856;2023-05-07T10:34:16;17.10;99.90
31207;DHT22;17834;52.992;8.856;2023-05-07T10:36:43;16.90;99.90
31207;DHT22;17834;52.992;8.856;2023-05-07T10:39:09;16.90;99.90
31207;DHT22;17834;52.992;8.856;2023-05-07T10:41:35;16.90;99.90
31207;DHT22;17834;52.992;8.856;2023-05-07T10:44:02;17.00;99.90
31207;DHT22;17834;52.992;8.856;2023-05-07T10:46:27;17.00;99.90
31207;DHT22;17834;52.992;8.856;2023-05-07T10:51:30;17.10;99.90
31207;DHT22;17834;52.992;8.856;2023-05-07T10:54:19;17.30;99.90
31207;DHT22;17834;52.992;8.856;2023-05-07T10:56:45;17.40;99.90
31207;DHT22;17834;52.992;8.856;2023-05-07T11:01:57;17.80;99.90
31207;DHT22;17834;52.992;8.856;2023-05-07T11:04:23;17.90;99.90
31207;DHT22;17834;52.992;8.856;2023-05-07T11:07:26;18.00;99.90
31207;DHT22;17834;52.992;8.856;2023-05-07T11:15:12;18.90;99.90
31207;DHT22;17834;52.992;8.856;2023-05-07T11:17:58;18.90;99.90
31207;DHT22;17834;52.992;8.856;2023-05-07T11:20:53;18.80;99.90
31207;DHT22;17834;52.992;8.856;2023-05-07T11:26:00;18.90;99.90
31207;DHT22;17834;52.992;8.856;2023-05-07T11:28:28;19.00;99.90
31207;DHT22;17834;52.992;8.856;2023-05-07T11:30:54;19.10;99.90
31207;DHT22;17834;52.992;8.856;2023-05-07T11:33:20;19.10;99.90
31207;DHT22;17834;52.992;8.856;2023-05-07T11:35:46;19.20;99.90
31207;DHT22;17834;52.992;8.856;2023-05-07T11:38:13;19.40;99.90
31207;DHT22;17834;52.992;8.856;2023-05-07T11:40:58;19.60;99.90
31207;DHT22;17834;52.992;8.856;2023-05-07T11:43:26;19.80;99.90
31207;DHT22;17834;52.992;8.856;2023-05-07T11:45:52;19.90;99.90
31207;DHT22;17834;52.992;8.856;2023-05-07T11:48:18;19.90;99.30
31207;DHT22;17834;52.992;8.856;2023-05-07T11:51:08;19.90;99.90
31207;DHT22;17834;52.992;8.856;2023-05-07T11:53:40;19.80;99.80
31207;DHT22;17834;52.992;8.856;2023-05-07T11:56:09;19.90;99.60
31207;DHT22;17834;52.992;8.856;2023-05-07T11:58:35;19.90;99.90
31207;DHT22;17834;52.992;8.856;2023-05-07T12:01:01;19.80;99.40
31207;DHT22;17834;52.992;8.856;2023-05-07T12:03:27;19.80;99.30
31207;DHT22;17834;52.992;8.856;2023-05-07T12:05:53;19.30;99.80
31207;DHT22;17834;52.992;8.856;2023-05-07T12:08:19;19.00;99.20
31207;DHT22;17834;52.992;8.856;2023-05-07T12:10:46;18.80;99.90
31207;DHT22;17834;52.992;8.856;2023-05-07T12:13:23;18.80;99.90
31207;DHT22;17834;52.992;8.856;2023-05-07T12:15:53;18.70;99.90
31207;DHT22;17834;52.992;8.856;2023-05-07T12:18:20;18.50;99.80
31207;DHT22;17834;52.992;8.856;2023-05-07T12:20:46;18.30;99.90
31207;DHT22;17834;52.992;8.856;2023-05-07T12:23:13;18.30;99.90
31207;DHT22;17834;52.992;8.856;2023-05-07T12:25:39;18.30;99.90
31207;DHT22;17834;52.992;8.856;2023-05-07T12:28:05;18.30;99.90
31207;DHT22;17834;52.992;8.856;2023-05-07T12:30:40;18.50;99.90
31207;DHT22;17834;52.992;8.856;2023-05-07T12:33:06;18.60;99.90
31207;DHT22;17834;52.992;8.856;2023-05-07T12:35:40;18.70;99.90
31207;DHT22;17834;52.992;8.856;2023-05-07T12:38:13;18.90;99.90
31207;DHT22;17834;52.992;8.856;2023-05-07T12:40:44;19.10;99.70
31207;DHT22;17834;52.992;8.856;2023-05-07T12:43:28;19.30;99.20
31207;DHT22;17834;52.992;8.856;2023-05-07T12:45:56;19.40;99.10
31207;DHT22;17834;52.992;8.856;2023-05-07T12:48:22;19.40;99.40
31207;DHT22;17834;52.992;8.856;2023-05-07T12:50:52;19.30;98.70
31207;DHT22;17834;52.992;8.856;2023-05-07T12:53:21;19.30;98.80
31207;DHT22;17834;52.992;8.856;2023-05-07T12:55:48;19.50;99.10
31207;DHT22;17834;52.992;8.856;2023-05-07T12:58:21;19.40;98.70
31207;DHT22;17834;52.992;8.856;2023-05-07T13:00:49;19.60;99.20
31207;DHT22;17834;52.992;8.856;2023-05-07T13:05:48;19.80;98.40
31207;DHT22;17834;52.992;8.856;2023-05-07T13:08:27;20.10;98.10
31207;DHT22;17834;52.992;8.856;2023-05-07T13:10:53;20.00;97.40
31207;DHT22;17834;52.992;8.856;2023-05-07T13:13:19;20.20;97.20
31207;DHT22;17834;52.992;8.856;2023-05-07T13:15:45;20.10;97.20
31207;DHT22;17834;52.992;8.856;2023-05-07T13:18:11;20.20;97.30
31207;DHT22;17834;52.992;8.856;2023-05-07T13:20:36;20.30;96.90
31207;DHT22;17834;52.992;8.856;2023-05-07T13:23:03;20.50;96.90
31207;DHT22;17834;52.992;8.856;2023-05-07T13:25:30;20.80;96.80
31207;DHT22;17834;52.992;8.856;2023-05-07T13:27:57;20.70;96.40
31207;DHT22;17834;52.992;8.856;2023-05-07T13:30:22;20.90;96.70
31207;DHT22;17834;52.992;8.856;2023-05-07T13:32:48;20.80;96.40
31207;DHT22;17834;52.992;8.856;2023-05-07T13:35:14;20.70;97.10
31207;DHT22;17834;52.992;8.856;2023-05-07T13:37:39;20.50;96.50
31207;DHT22;17834;52.992;8.856;2023-05-07T13:40:06;20.40;97.10
31207;DHT22;17834;52.992;8.856;2023-05-07T13:42:31;20.20;97.50
31207;DHT22;17834;52.992;8.856;2023-05-07T13:44:57;20.00;97.00
31207;DHT22;17834;52.992;8.856;2023-05-07T13:47:22;19.90;97.60
31207;DHT22;17834;52.992;8.856;2023-05-07T13:49:48;19.70;97.10
31207;DHT22;17834;52.992;8.856;2023-05-07T13:52:17;19.40;97.30
31207;DHT22;17834;52.992;8.856;2023-05-07T13:54:42;19.20;97.30
31207;DHT22;17834;52.992;8.856;2023-05-07T13:57:08;18.90;97.90
31207;DHT22;17834;52.992;8.856;2023-05-07T13:59:34;18.80;98.10
31207;DHT22;17834;52.992;8.856;2023-05-07T14:01:59;18.60;98.80
31207;DHT22;17834;52.992;8.856;2023-05-07T14:04:25;18.40;98.80
31207;DHT22;17834;52.992;8.856;2023-05-07T14:06:51;18.20;99.20
31207;DHT22;17834;52.992;8.856;2023-05-07T14:09:16;18.10;99.10
31207;DHT22;17834;52.992;8.856;2023-05-07T14:11:42;18.10;99.50
31207;DHT22;17834;52.992;8.856;2023-05-07T14:14:08;18.10;99.90
31207;DHT22;17834;52.992;8.856;2023-05-07T14:16:36;18.20;99.90
31207;DHT22;17834;52.992;8.856;2023-05-07T14:19:02;18.20;99.90
31207;DHT22;17834;52.992;8.856;2023-05-07T14:21:27;18.30;99.90
31207;DHT22;17834;52.992;8.856;2023-05-07T14:23:53;18.40;99.90
31207;DHT22;17834;52.992;8.856;2023-05-07T14:26:19;18.40;99.90
31207;DHT22;17834;52.992;8.856;2023-05-07T14:28:45;18.40;99.60
31207;DHT22;17834;52.992;8.856;2023-05-07T14:31:12;18.40;99.50
31207;DHT22;17834;52.992;8.856;2023-05-07T14:33:37;18.30;99.80
31207;DHT22;17834;52.992;8.856;2023-05-07T14:36:03;18.30;99.70
31207;DHT22;17834;52.992;8.856;2023-05-07T14:38:29;18.30;99.90
31207;DHT22;17834;52.992;8.856;2023-05-07T14:40:55;18.30;99.90
31207;DHT22;17834;52.992;8.856;2023-05-07T14:43:21;18.40;99.90
31207;DHT22;17834;52.992;8.856;2023-05-07T14:45:47;18.20;99.10
31207;DHT22;17834;52.992;8.856;2023-05-07T14:48:13;18.10;99.70
31207;DHT22;17834;52.992;8.856;2023-05-07T14:50:41;17.80;99.60
31207;DHT22;17834;52.992;8.856;2023-05-07T14:53:06;17.70;99.90
31207;DHT22;17834;52.992;8.856;2023-05-07T14:55:32;17.50;99.90
31207;DHT22;17834;52.992;8.856;2023-05-07T14:57:58;17.30;99.90
31207;DHT22;17834;52.992;8.856;2023-05-07T15:00:24;17.10;99.90
31207;DHT22;17834;52.992;8.856;2023-05-07T15:02:50;17.00;99.90
31207;DHT22;17834;52.992;8.856;2023-05-07T15:05:15;16.80;99.90
31207;DHT22;17834;52.992;8.856;2023-05-07T15:07:41;16.80;99.90
31207;DHT22;17834;52.992;8.856;2023-05-07T15:10:07;16.80;99.90
31207;DHT22;17834;52.992;8.856;2023-05-07T15:12:32;16.70;99.90
31207;DHT22;17834;52.992;8.856;2023-05-07T15:14:58;16.90;99.90
31207;DHT22;17834;52.992;8.856;2023-05-07T15:17:23;17.10;99.90
31207;DHT22;17834;52.992;8.856;2023-05-07T15:19:49;17.10;99.90
31207;DHT22;17834;52.992;8.856;2023-05-07T15:22:14;17.20;99.90
31207;DHT22;17834;52.992;8.856;2023-05-07T15:24:40;17.30;99.90
31207;DHT22;17834;52.992;8.856;2023-05-07T15:27:06;17.40;99.90
31207;DHT22;17834;52.992;8.856;2023-05-07T15:29:32;17.50;99.90
31207;DHT22;17834;52.992;8.856;2023-05-07T15:31:58;17.70;99.90
31207;DHT22;17834;52.992;8.856;2023-05-07T15:34:23;17.70;99.90
31207;DHT22;17834;52.992;8.856;2023-05-07T15:36:49;17.90;99.90
31207;DHT22;17834;52.992;8.856;2023-05-07T15:39:15;18.00;99.90
31207;DHT22;17834;52.992;8.856;2023-05-07T15:41:41;18.00;99.90
31207;DHT22;17834;52.992;8.856;2023-05-07T15:44:07;18.00;99.60
31207;DHT22;17834;52.992;8.856;2023-05-07T15:46:32;17.90;99.60
31207;DHT22;17834;52.992;8.856;2023-05-07T15:49:01;17.90;99.70